createdAt,value
2022-12-24T00:00:46.334Z,2.80
2022-12-24T00:01:46.253Z,5.10
2022-12-24T00:02:46.443Z,7.10
2022-12-24T00:03:46.303Z,2.10
2022-12-24T00:04:46.240Z,3.60
2022-12-24T00:05:46.235Z,5.30
2022-12-24T00:06:46.245Z,1.80
2022-12-24T00:07:46.269Z,1.40
2022-12-24T00:08:46.231Z,2.70
2022-12-24T00:09:46.229Z,5.80
2022-12-24T00:10:46.221Z,5.70
2022-12-24T00:11:46.221Z,3.50
2022-12-24T00:12:46.207Z,5.10
2022-12-24T00:13:46.236Z,4.30
2022-12-24T00:14:46.213Z,5.50
2022-12-24T00:15:46.192Z,4.30
2022-12-24T00:16:46.161Z,4.30
2022-12-24T00:17:46.145Z,2.80
2022-12-24T00:18:47.084Z,2.30
2022-12-24T00:19:47.169Z,5.90
2022-12-24T00:20:46.118Z,5.70
2022-12-24T00:21:46.157Z,4.30
2022-12-24T00:22:46.157Z,2.40
2022-12-24T00:23:46.119Z,3.60
2022-12-24T00:24:46.164Z,4.10
2022-12-24T00:25:46.146Z,2.40
2022-12-24T00:26:46.105Z,4.40
2022-12-24T00:27:46.056Z,2.40
2022-12-24T00:28:46.063Z,4.50
2022-12-24T00:29:46.130Z,7.80
2022-12-24T00:30:46.107Z,5.00
2022-12-24T00:31:46.109Z,4.00
2022-12-24T00:32:46.061Z,1.80
2022-12-24T00:33:46.078Z,1.60
2022-12-24T00:34:46.040Z,9.70
2022-12-24T00:35:46.097Z,2.80
2022-12-24T00:36:46.047Z,3.90
2022-12-24T00:37:46.055Z,2.60
2022-12-24T00:38:46.019Z,3.10
2022-12-24T00:39:46.027Z,4.70
2022-12-24T00:40:46.079Z,2.30
2022-12-24T00:41:46.000Z,9.00
2022-12-24T00:42:46.007Z,6.60
2022-12-24T00:43:45.980Z,5.10
2022-12-24T00:44:46.019Z,4.50
2022-12-24T00:45:46.089Z,4.30
2022-12-24T00:46:46.067Z,4.10
2022-12-24T00:47:45.959Z,5.00
2022-12-24T00:48:45.973Z,3.70
2022-12-24T00:49:45.952Z,8.80
2022-12-24T00:50:46.059Z,5.30
2022-12-24T00:51:45.978Z,1.50
2022-12-24T00:52:45.935Z,6.80
2022-12-24T00:53:45.940Z,10.40
2022-12-24T00:54:45.958Z,6.20
2022-12-24T00:55:45.942Z,2.40
2022-12-24T00:56:45.922Z,1.30
2022-12-24T00:57:45.949Z,2.90
2022-12-24T00:58:45.925Z,3.30
2022-12-24T00:59:45.872Z,1.40
2022-12-24T01:00:45.936Z,4.50
2022-12-24T01:01:45.998Z,7.20
2022-12-24T01:02:46.186Z,1.80
2022-12-24T01:03:46.016Z,4.60
2022-12-24T01:04:45.909Z,6.10
2022-12-24T01:05:45.899Z,11.90
2022-12-24T01:06:45.874Z,2.50
2022-12-24T01:07:45.830Z,2.00
2022-12-24T01:08:45.904Z,1.20
2022-12-24T01:09:45.830Z,3.90
2022-12-24T01:10:45.855Z,3.10
2022-12-24T01:11:45.850Z,9.60
2022-12-24T01:12:45.806Z,1.60
2022-12-24T01:13:45.860Z,2.10
2022-12-24T01:14:45.817Z,2.20
2022-12-24T01:15:45.876Z,0.80
2022-12-24T01:16:45.826Z,2.70
2022-12-24T01:17:45.825Z,1.50
2022-12-24T01:18:45.853Z,1.60
2022-12-24T01:19:45.873Z,2.90
2022-12-24T01:20:45.748Z,2.90
2022-12-24T01:21:45.783Z,2.60
2022-12-24T01:22:45.728Z,1.70
2022-12-24T01:23:45.818Z,1.00
2022-12-24T01:24:45.833Z,6.70
2022-12-24T01:25:45.804Z,1.50
2022-12-24T01:26:45.758Z,1.20
2022-12-24T01:27:45.746Z,3.20
2022-12-24T01:28:45.711Z,4.00
2022-12-24T01:29:45.709Z,0.70
2022-12-24T01:30:45.848Z,2.30
2022-12-24T01:31:45.757Z,0.90
2022-12-24T01:32:45.704Z,2.10
2022-12-24T01:33:45.736Z,3.90
2022-12-24T01:34:45.720Z,1.90
2022-12-24T01:35:45.691Z,1.70
2022-12-24T01:36:45.649Z,1.90
2022-12-24T01:37:45.676Z,2.00
2022-12-24T01:38:45.691Z,3.20
2022-12-24T01:39:45.693Z,2.30
2022-12-24T01:40:45.647Z,1.40
2022-12-24T01:41:45.701Z,4.50
2022-12-24T01:42:45.626Z,1.50
2022-12-24T01:43:45.654Z,2.20
2022-12-24T01:44:45.633Z,3.00
2022-12-24T01:45:45.659Z,1.60
2022-12-24T01:46:45.728Z,3.30
2022-12-24T01:47:45.635Z,3.30
2022-12-24T01:48:46.566Z,4.30
2022-12-24T01:49:45.623Z,2.70
2022-12-24T01:50:45.589Z,3.30
2022-12-24T01:51:45.594Z,6.90
2022-12-24T01:52:45.614Z,1.60
2022-12-24T01:53:45.585Z,1.40
2022-12-24T01:54:45.586Z,1.60
2022-12-24T01:55:45.582Z,2.50
2022-12-24T01:56:45.541Z,2.50
2022-12-24T01:57:45.700Z,2.60
2022-12-24T01:58:45.567Z,1.40
2022-12-24T01:59:45.535Z,1.00
2022-12-24T02:00:45.566Z,3.60
2022-12-24T02:01:45.617Z,2.50
2022-12-24T02:02:45.676Z,2.80
2022-12-24T02:03:45.606Z,5.60
2022-12-24T02:04:45.495Z,6.80
2022-12-24T02:05:45.518Z,2.10
2022-12-24T02:06:45.520Z,3.70
2022-12-24T02:07:45.490Z,2.50
2022-12-24T02:08:45.573Z,5.60
2022-12-24T02:09:45.486Z,1.40
2022-12-24T02:10:45.477Z,4.80
2022-12-24T02:11:45.485Z,2.80
2022-12-24T02:12:45.475Z,5.90
2022-12-24T02:13:45.461Z,1.50
2022-12-24T02:14:45.455Z,6.10
2022-12-24T02:15:45.506Z,2.50
2022-12-24T02:16:45.460Z,7.40
2022-12-24T02:17:45.431Z,4.20
2022-12-24T02:18:45.408Z,4.90
2022-12-24T02:19:45.516Z,3.70
2022-12-24T02:20:45.408Z,3.90
2022-12-24T02:21:45.423Z,3.60
2022-12-24T02:22:45.384Z,2.10
2022-12-24T02:23:45.391Z,1.80
2022-12-24T02:24:45.361Z,2.70
2022-12-24T02:25:45.495Z,3.00
2022-12-24T02:26:45.390Z,2.30
2022-12-24T02:27:45.373Z,3.20
2022-12-24T02:28:45.393Z,3.30
2022-12-24T02:29:45.348Z,5.00
2022-12-24T02:30:45.454Z,140.20
2022-12-24T02:31:45.373Z,2.00
2022-12-24T02:32:45.340Z,3.00
2022-12-24T02:33:45.394Z,1.60
2022-12-24T02:34:45.322Z,1.50
2022-12-24T02:35:45.331Z,3.60
2022-12-24T02:36:45.445Z,3.10
2022-12-24T02:37:45.324Z,3.50
2022-12-24T02:38:45.320Z,6.00
2022-12-24T02:39:45.283Z,2.40
2022-12-24T02:40:45.269Z,3.90
2022-12-24T02:41:45.325Z,6.00
2022-12-24T02:42:45.298Z,19.40
2022-12-24T02:43:45.259Z,4.10
2022-12-24T02:44:45.252Z,4.00
2022-12-24T02:45:45.282Z,3.40
2022-12-24T02:46:45.337Z,3.00
2022-12-24T02:47:45.260Z,5.10
2022-12-24T02:48:45.238Z,2.80
2022-12-24T02:49:45.276Z,5.90
2022-12-24T02:50:45.250Z,14.80
2022-12-24T02:51:45.241Z,394.20
2022-12-24T02:52:45.262Z,242.10
2022-12-24T02:53:45.199Z,32.00
2022-12-24T02:54:45.210Z,20.10
2022-12-24T02:55:45.212Z,12.10
2022-12-24T02:56:45.221Z,4.80
2022-12-24T02:57:45.193Z,5.00
2022-12-24T02:58:45.236Z,6.90
2022-12-24T02:59:45.146Z,6.60
2022-12-24T03:00:45.189Z,5.60
2022-12-24T03:01:45.262Z,6.00
2022-12-24T03:02:45.239Z,48.40
2022-12-24T03:03:45.189Z,119.20
2022-12-24T03:04:45.147Z,233.50
2022-12-24T03:05:45.163Z,68.60
2022-12-24T03:06:45.123Z,165.50
2022-12-24T03:07:45.155Z,64.20
2022-12-24T03:08:45.154Z,32.20
2022-12-24T03:09:45.164Z,455.20
2022-12-24T03:10:45.109Z,734.80
2022-12-24T03:11:45.112Z,350.20
2022-12-24T03:12:45.083Z,133.90
2022-12-24T03:13:45.076Z,95.10
2022-12-24T03:14:45.122Z,7.80
2022-12-24T03:15:45.107Z,5.40
2022-12-24T03:16:45.176Z,2.20
2022-12-24T03:17:45.123Z,4.30
2022-12-24T03:18:45.050Z,5.20
2022-12-24T03:19:45.063Z,6.50
2022-12-24T03:20:45.076Z,3.80
2022-12-24T03:21:45.077Z,2.90
2022-12-24T03:22:45.074Z,1.50
2022-12-24T03:23:45.022Z,1.50
2022-12-24T03:24:45.033Z,2.50
2022-12-24T03:25:45.014Z,1.90
2022-12-24T03:26:45.016Z,2.50
2022-12-24T03:27:44.997Z,3.40
2022-12-24T03:28:45.037Z,2.40
2022-12-24T03:29:45.032Z,9.80
2022-12-24T03:30:44.996Z,5.00
2022-12-24T03:31:45.126Z,1.90
2022-12-24T03:32:44.976Z,1.60
2022-12-24T03:33:44.976Z,2.00
2022-12-24T03:34:44.982Z,3.50
2022-12-24T03:35:44.974Z,1.20
2022-12-24T03:36:44.978Z,3.60
2022-12-24T03:37:44.933Z,7.20
2022-12-24T03:38:44.965Z,2.50
2022-12-24T03:39:44.974Z,3.50
2022-12-24T03:40:44.923Z,3.60
2022-12-24T03:41:44.924Z,5.80
2022-12-24T03:42:45.036Z,2.70
2022-12-24T03:43:44.913Z,2.20
2022-12-24T03:44:44.897Z,1.30
2022-12-24T03:45:44.982Z,5.10
2022-12-24T03:46:44.907Z,7.50
2022-12-24T03:47:44.971Z,10.50
2022-12-24T03:48:44.859Z,2.90
2022-12-24T03:49:44.884Z,4.40
2022-12-24T03:50:44.893Z,2.40
2022-12-24T03:51:44.860Z,2.10
2022-12-24T03:52:44.871Z,3.10
2022-12-24T03:53:44.880Z,1.60
2022-12-24T03:54:44.852Z,3.20
2022-12-24T03:55:44.847Z,5.80
2022-12-24T03:56:44.851Z,4.20
2022-12-24T03:57:44.837Z,3.90
2022-12-24T03:58:44.822Z,2.00
2022-12-24T03:59:44.804Z,4.20
2022-12-24T04:00:44.840Z,6.30
2022-12-24T04:01:44.932Z,4.00
2022-12-24T04:02:44.878Z,5.60
2022-12-24T04:03:44.783Z,4.50
2022-12-24T04:04:44.916Z,7.10
2022-12-24T04:05:44.775Z,4.10
2022-12-24T04:06:44.806Z,5.80
2022-12-24T04:07:44.794Z,8.00
2022-12-24T04:08:44.783Z,2.50
2022-12-24T04:09:44.781Z,2.20
2022-12-24T04:10:44.785Z,3.40
2022-12-24T04:11:44.776Z,3.70
2022-12-24T04:12:44.754Z,3.00
2022-12-24T04:13:44.734Z,2.70
2022-12-24T04:14:44.721Z,4.00
2022-12-24T04:15:44.839Z,6.40
2022-12-24T04:16:44.810Z,4.40
2022-12-24T04:17:44.720Z,2.60
2022-12-24T04:18:44.704Z,5.40
2022-12-24T04:19:44.737Z,2.30
2022-12-24T04:20:44.702Z,4.90
2022-12-24T04:21:44.680Z,3.50
2022-12-24T04:22:44.686Z,5.90
2022-12-24T04:23:44.681Z,1.50
2022-12-24T04:24:44.730Z,3.90
2022-12-24T04:25:44.656Z,2.90
2022-12-24T04:26:44.712Z,3.20
2022-12-24T04:27:44.630Z,8.60
2022-12-24T04:28:44.709Z,3.50
2022-12-24T04:29:44.636Z,2.90
2022-12-24T04:30:44.615Z,2.50
2022-12-24T04:31:44.929Z,4.10
2022-12-24T04:32:44.631Z,3.70
2022-12-24T04:33:44.624Z,5.20
2022-12-24T04:34:44.609Z,2.90
2022-12-24T04:35:44.616Z,4.90
2022-12-24T04:36:44.634Z,4.20
2022-12-24T04:37:44.625Z,3.90
2022-12-24T04:38:44.603Z,4.70
2022-12-24T04:39:44.576Z,9.60
2022-12-24T04:40:44.600Z,4.10
2022-12-24T04:41:44.528Z,4.90
2022-12-24T04:42:44.555Z,2.00
2022-12-24T04:43:44.566Z,3.70
2022-12-24T04:44:44.547Z,2.50
2022-12-24T04:45:44.596Z,5.60
2022-12-24T04:46:44.579Z,3.70
2022-12-24T04:47:44.531Z,3.10
2022-12-24T04:48:44.619Z,1.60
2022-12-24T04:49:44.512Z,2.30
2022-12-24T04:50:44.529Z,2.60
2022-12-24T04:51:44.489Z,10.00
2022-12-24T04:52:44.481Z,8.80
2022-12-24T04:53:44.507Z,7.10
2022-12-24T04:54:44.500Z,2.40
2022-12-24T04:55:44.465Z,4.50
2022-12-24T04:56:44.480Z,1.20
2022-12-24T04:57:49.724Z,4.40
2022-12-24T04:58:46.506Z,8.00
2022-12-24T04:59:44.456Z,5.70
2022-12-24T05:00:44.429Z,4.20
2022-12-24T05:01:44.613Z,5.40
2022-12-24T05:02:44.555Z,2.70
2022-12-24T05:03:44.449Z,3.70
2022-12-24T05:04:44.477Z,4.90
2022-12-24T05:05:44.459Z,3.10
2022-12-24T05:06:44.384Z,7.00
2022-12-24T05:07:44.396Z,3.30
2022-12-24T05:08:44.420Z,2.10
2022-12-24T05:09:44.457Z,3.60
2022-12-24T05:10:44.438Z,6.30
2022-12-24T05:11:44.390Z,2.90
2022-12-24T05:12:44.378Z,6.20
2022-12-24T05:13:47.447Z,3.20
2022-12-24T05:14:45.382Z,5.60
2022-12-24T05:15:44.355Z,1.70
2022-12-24T05:16:44.432Z,4.50
2022-12-24T05:17:44.342Z,2.40
2022-12-24T05:18:44.311Z,2.80
2022-12-24T05:19:44.350Z,4.90
2022-12-24T05:20:44.415Z,8.40
2022-12-24T05:21:44.312Z,3.00
2022-12-24T05:22:44.308Z,4.30
2022-12-24T05:23:44.306Z,8.60
2022-12-24T05:24:44.285Z,2.30
2022-12-24T05:25:44.433Z,3.30
2022-12-24T05:26:44.293Z,4.20
2022-12-24T05:27:50.667Z,10.70
2022-12-24T05:28:46.275Z,3.40
2022-12-24T05:29:44.251Z,2.90
2022-12-24T05:30:44.303Z,3.30
2022-12-24T05:31:44.359Z,2.20
2022-12-24T05:32:44.248Z,6.30
2022-12-24T05:33:44.246Z,4.70
2022-12-24T05:34:44.214Z,2.50
2022-12-24T05:35:44.237Z,4.50
2022-12-24T05:36:44.307Z,10.20
2022-12-24T05:37:44.245Z,6.70
2022-12-24T05:38:44.217Z,2.90
2022-12-24T05:39:44.226Z,4.90
2022-12-24T05:40:44.211Z,3.70
2022-12-24T05:41:44.192Z,1.70
2022-12-24T05:42:44.210Z,1.70
2022-12-24T05:43:44.149Z,5.80
2022-12-24T05:44:44.168Z,9.10
2022-12-24T05:45:44.243Z,4.90
2022-12-24T05:46:44.308Z,5.00
2022-12-24T05:47:44.200Z,7.40
2022-12-24T05:48:44.139Z,1.70
2022-12-24T05:49:44.102Z,12.90
2022-12-24T05:50:44.153Z,7.60
2022-12-24T05:51:44.156Z,4.90
2022-12-24T05:52:44.132Z,5.50
2022-12-24T05:53:44.162Z,5.80
2022-12-24T05:54:44.101Z,2.60
2022-12-24T05:55:44.095Z,8.60
2022-12-24T05:56:44.089Z,2.50
2022-12-24T05:57:44.120Z,3.80
2022-12-24T05:58:44.106Z,2.60
2022-12-24T05:59:44.113Z,2.30
2022-12-24T06:00:44.168Z,4.50
2022-12-24T06:01:44.111Z,3.50
2022-12-24T06:02:44.151Z,5.10
2022-12-24T06:03:44.082Z,2.50
2022-12-24T06:04:44.086Z,3.80
2022-12-24T06:05:44.031Z,2.50
2022-12-24T06:06:44.041Z,4.40
2022-12-24T06:07:44.050Z,2.00
2022-12-24T06:08:44.029Z,2.80
2022-12-24T06:09:44.056Z,3.30
2022-12-24T06:10:44.027Z,1.90
2022-12-24T06:11:44.033Z,6.00
2022-12-24T06:12:44.041Z,4.50
2022-12-24T06:13:43.993Z,2.00
2022-12-24T06:14:43.996Z,3.50
2022-12-24T06:15:44.190Z,2.30
2022-12-24T06:16:43.961Z,1.40
2022-12-24T06:17:43.964Z,2.80
2022-12-24T06:18:43.992Z,2.40
2022-12-24T06:19:43.957Z,1.50
2022-12-24T06:20:43.969Z,2.60
2022-12-24T06:21:43.933Z,2.20
2022-12-24T06:22:43.958Z,4.40
2022-12-24T06:23:43.910Z,2.30
2022-12-24T06:24:43.908Z,6.60
2022-12-24T06:25:43.940Z,5.20
2022-12-24T06:26:44.078Z,2.80
2022-12-24T06:27:43.929Z,3.30
2022-12-24T06:28:43.892Z,4.40
2022-12-24T06:29:43.908Z,1.50
2022-12-24T06:30:43.934Z,2.70
2022-12-24T06:31:44.034Z,5.50
2022-12-24T06:32:43.908Z,11.70
2022-12-24T06:33:43.880Z,4.00
2022-12-24T06:34:43.878Z,3.50
2022-12-24T06:35:43.872Z,2.90
2022-12-24T06:36:43.899Z,6.70
2022-12-24T06:37:43.883Z,2.80
2022-12-24T06:38:43.862Z,4.40
2022-12-24T06:39:43.828Z,2.40
2022-12-24T06:40:43.838Z,3.20
2022-12-24T06:41:43.808Z,3.50
2022-12-24T06:42:43.843Z,1.60
2022-12-24T06:43:43.806Z,4.50
2022-12-24T06:44:43.816Z,6.60
2022-12-24T06:45:43.785Z,1.60
2022-12-24T06:46:43.943Z,2.90
2022-12-24T06:47:43.796Z,4.10
2022-12-24T06:48:43.818Z,4.50
2022-12-24T06:49:43.800Z,4.80
2022-12-24T06:50:43.773Z,6.20
2022-12-24T06:51:43.787Z,4.90
2022-12-24T06:52:43.748Z,6.10
2022-12-24T06:53:43.774Z,3.90
2022-12-24T06:54:43.785Z,2.70
2022-12-24T06:55:43.779Z,5.40
2022-12-24T06:56:43.730Z,3.50
2022-12-24T06:57:43.733Z,4.20
2022-12-24T06:58:43.683Z,3.50
2022-12-24T06:59:43.742Z,3.40
2022-12-24T07:00:43.714Z,1.40
2022-12-24T07:01:43.818Z,1.20
2022-12-24T07:02:43.818Z,3.10
2022-12-24T07:03:43.710Z,4.80
2022-12-24T07:04:43.726Z,3.20
2022-12-24T07:05:43.688Z,1.30
2022-12-24T07:06:43.685Z,3.70
2022-12-24T07:07:43.684Z,1.30
2022-12-24T07:08:43.705Z,1.40
2022-12-24T07:09:43.644Z,1.60
2022-12-24T07:10:47.602Z,2.60
2022-12-24T07:11:44.722Z,1.80
2022-12-24T07:12:43.628Z,0.70
2022-12-24T07:13:43.677Z,3.00
2022-12-24T07:14:43.622Z,1.80
2022-12-24T07:15:43.674Z,1.90
2022-12-24T07:16:43.745Z,2.40
2022-12-24T07:17:43.686Z,3.50
2022-12-24T07:18:43.599Z,3.10
2022-12-24T07:19:43.576Z,2.70
2022-12-24T07:20:43.569Z,4.70
2022-12-24T07:21:43.717Z,1.90
2022-12-24T07:22:43.640Z,4.70
2022-12-24T07:23:43.550Z,4.10
2022-12-24T07:24:43.571Z,3.20
2022-12-24T07:25:43.553Z,1.80
2022-12-24T07:26:43.664Z,1.70
2022-12-24T07:27:43.522Z,3.30
2022-12-24T07:28:43.513Z,0.80
2022-12-24T07:29:43.522Z,1.00
2022-12-24T07:30:43.567Z,1.40
2022-12-24T07:31:43.528Z,2.90
2022-12-24T07:32:43.552Z,1.70
2022-12-24T07:33:44.510Z,1.90
2022-12-24T07:34:43.503Z,1.30
2022-12-24T07:35:43.457Z,1.70
2022-12-24T07:36:43.488Z,2.20
2022-12-24T07:37:43.612Z,3.70
2022-12-24T07:38:43.443Z,1.10
2022-12-24T07:39:43.472Z,8.40
2022-12-24T07:40:43.484Z,1.40
2022-12-24T07:41:43.477Z,0.80
2022-12-24T07:42:43.477Z,1.20
2022-12-24T07:43:43.554Z,1.10
2022-12-24T07:44:43.444Z,1.00
2022-12-24T07:45:43.397Z,0.90
2022-12-24T07:46:43.543Z,3.00
2022-12-24T07:47:43.402Z,1.10
2022-12-24T07:48:43.541Z,1.70
2022-12-24T07:49:43.408Z,0.50
2022-12-24T07:50:43.415Z,1.20
2022-12-24T07:51:43.346Z,4.90
2022-12-24T07:52:44.372Z,0.80
2022-12-24T07:53:43.359Z,3.10
2022-12-24T07:54:43.453Z,0.80
2022-12-24T07:55:43.400Z,0.80
2022-12-24T07:56:43.331Z,2.40
2022-12-24T07:57:43.377Z,1.60
2022-12-24T07:58:43.372Z,1.10
2022-12-24T07:59:43.350Z,0.50
2022-12-24T08:00:44.339Z,1.30
2022-12-24T08:01:43.443Z,0.60
2022-12-24T08:02:43.495Z,2.00
2022-12-24T08:03:43.411Z,0.50
2022-12-24T08:04:43.337Z,0.50
2022-12-24T08:05:43.404Z,3.50
2022-12-24T08:06:43.315Z,0.60
2022-12-24T08:07:43.295Z,1.60
2022-12-24T08:08:43.317Z,1.10
2022-12-24T08:09:43.296Z,7.50
2022-12-24T08:10:43.390Z,2.40
2022-12-24T08:11:49.711Z,2.40
2022-12-24T08:12:45.293Z,0.90
2022-12-24T08:13:43.277Z,0.90
2022-12-24T08:14:43.238Z,0.90
2022-12-24T08:15:43.266Z,1.50
2022-12-24T08:16:43.347Z,0.60
2022-12-24T08:17:43.225Z,1.30
2022-12-24T08:18:43.224Z,0.60
2022-12-24T08:19:43.183Z,2.70
2022-12-24T08:20:43.350Z,0.70
2022-12-24T08:21:43.310Z,3.60
2022-12-24T08:22:43.223Z,0.60
2022-12-24T08:23:43.214Z,0.80
2022-12-24T08:24:43.168Z,2.40
2022-12-24T08:25:43.172Z,1.00
2022-12-24T08:26:43.164Z,1.30
2022-12-24T08:27:43.200Z,3.50
2022-12-24T08:28:43.137Z,2.00
2022-12-24T08:29:43.155Z,1.10
2022-12-24T08:30:43.187Z,0.40
2022-12-24T08:31:43.216Z,0.70
2022-12-24T08:32:44.151Z,2.00
2022-12-24T08:33:43.110Z,2.30
2022-12-24T08:34:43.145Z,0.80
2022-12-24T08:35:43.149Z,0.90
2022-12-24T08:36:43.118Z,2.00
2022-12-24T08:37:43.143Z,1.10
2022-12-24T08:38:43.101Z,0.80
2022-12-24T08:39:43.090Z,0.70
2022-12-24T08:40:43.102Z,0.80
2022-12-24T08:41:43.074Z,4.90
2022-12-24T08:42:43.188Z,2.90
2022-12-24T08:43:43.133Z,0.50
2022-12-24T08:44:43.035Z,2.50
2022-12-24T08:45:43.125Z,1.30
2022-12-24T08:46:43.192Z,3.00
2022-12-24T08:47:43.045Z,1.50
2022-12-24T08:48:43.167Z,1.00
2022-12-24T08:49:43.040Z,1.90
2022-12-24T08:50:43.038Z,2.50
2022-12-24T08:51:44.019Z,0.70
2022-12-24T08:52:43.019Z,0.80
2022-12-24T08:53:43.025Z,1.70
2022-12-24T08:54:43.072Z,2.00
2022-12-24T08:55:42.988Z,4.80
2022-12-24T08:56:43.012Z,2.10
2022-12-24T08:57:42.973Z,2.10
2022-12-24T08:58:42.977Z,1.10
2022-12-24T08:59:43.025Z,2.50
2022-12-24T09:00:43.006Z,7.30
2022-12-24T09:01:43.260Z,2.20
2022-12-24T09:02:42.998Z,0.60
2022-12-24T09:03:43.176Z,2.20
2022-12-24T09:04:42.945Z,0.80
2022-12-24T09:05:43.015Z,2.00
2022-12-24T09:06:42.911Z,5.80
2022-12-24T09:07:42.947Z,4.70
2022-12-24T09:08:42.962Z,3.00
2022-12-24T09:09:42.930Z,1.00
2022-12-24T09:10:42.942Z,1.20
2022-12-24T09:11:42.920Z,1.10
2022-12-24T09:12:42.890Z,5.80
2022-12-24T09:13:42.871Z,0.90
2022-12-24T09:14:42.880Z,0.80
2022-12-24T09:15:42.857Z,1.20
2022-12-24T09:16:42.945Z,1.10
2022-12-24T09:17:42.862Z,1.70
2022-12-24T09:18:42.865Z,0.70
2022-12-24T09:19:42.843Z,0.80
2022-12-24T09:20:46.726Z,2.90
2022-12-24T09:21:43.920Z,1.20
2022-12-24T09:22:42.828Z,3.10
2022-12-24T09:23:42.859Z,1.40
2022-12-24T09:24:42.781Z,0.80
2022-12-24T09:25:42.819Z,1.20
2022-12-24T09:26:42.813Z,0.70
2022-12-24T09:27:42.868Z,1.50
2022-12-24T09:28:42.815Z,0.60
2022-12-24T09:29:42.773Z,0.60
2022-12-24T09:30:42.776Z,0.90
2022-12-24T09:31:42.804Z,1.80
2022-12-24T09:32:42.790Z,0.90
2022-12-24T09:33:42.781Z,2.40
2022-12-24T09:34:42.902Z,0.80
2022-12-24T09:35:42.798Z,4.30
2022-12-24T09:36:42.778Z,1.00
2022-12-24T09:37:42.757Z,1.90
2022-12-24T09:38:42.759Z,2.20
2022-12-24T09:39:42.736Z,2.40
2022-12-24T09:40:42.712Z,1.30
2022-12-24T09:41:42.750Z,0.90
2022-12-24T09:42:42.708Z,3.40
2022-12-24T09:43:42.727Z,1.20
2022-12-24T09:44:43.696Z,5.50
2022-12-24T09:45:42.778Z,2.00
2022-12-24T09:46:43.535Z,1.50
2022-12-24T09:47:42.702Z,1.40
2022-12-24T09:48:42.705Z,1.70
2022-12-24T09:49:42.667Z,1.30
2022-12-24T09:50:42.640Z,1.60
2022-12-24T09:51:42.659Z,2.00
2022-12-24T09:52:42.718Z,2.10
2022-12-24T09:53:42.657Z,1.10
2022-12-24T09:54:47.717Z,4.50
2022-12-24T09:55:44.657Z,2.00
2022-12-24T09:56:42.647Z,1.00
2022-12-24T09:57:42.617Z,0.80
2022-12-24T09:58:42.609Z,4.70
2022-12-24T09:59:42.602Z,2.60
2022-12-24T10:00:49.570Z,2.90
2022-12-24T10:01:43.680Z,1.20
2022-12-24T10:02:42.895Z,8.50
2022-12-24T10:03:42.628Z,2.90
2022-12-24T10:04:43.601Z,1.30
2022-12-24T10:05:42.579Z,3.00
2022-12-24T10:06:42.572Z,1.90
2022-12-24T10:07:42.589Z,2.00
2022-12-24T10:08:42.565Z,5.70
2022-12-24T10:09:42.555Z,1.10
2022-12-24T10:10:42.528Z,1.40
2022-12-24T10:11:44.374Z,3.90
2022-12-24T10:12:49.350Z,7.70
2022-12-24T10:13:43.508Z,3.20
2022-12-24T10:14:42.540Z,1.00
2022-12-24T10:15:42.549Z,1.60
2022-12-24T10:16:42.568Z,4.90
2022-12-24T10:17:42.497Z,2.50
2022-12-24T10:18:48.837Z,2.40
2022-12-24T10:19:43.526Z,1.10
2022-12-24T10:20:42.474Z,1.90
2022-12-24T10:21:42.479Z,3.00
2022-12-24T10:22:42.546Z,1.40
2022-12-24T10:23:42.433Z,2.10
2022-12-24T10:24:49.825Z,2.70
2022-12-24T10:25:42.443Z,2.50
2022-12-24T10:26:42.483Z,6.10
2022-12-24T10:27:42.596Z,2.70
2022-12-24T10:28:42.434Z,1.50
2022-12-24T10:29:42.474Z,4.00
2022-12-24T10:30:42.481Z,5.10
2022-12-24T10:31:43.376Z,1.90
2022-12-24T10:32:42.408Z,6.40
2022-12-24T10:33:42.388Z,4.60
2022-12-24T10:34:42.416Z,3.60
2022-12-24T10:35:42.381Z,2.50
2022-12-24T10:36:42.919Z,5.90
2022-12-24T10:37:42.400Z,1.40
2022-12-24T10:38:42.432Z,3.20
2022-12-24T10:39:42.383Z,3.50
2022-12-24T10:40:43.393Z,2.30
2022-12-24T10:41:42.354Z,6.40
2022-12-24T10:42:50.114Z,1.70
2022-12-24T10:43:44.548Z,1.50
2022-12-24T10:44:42.332Z,3.00
2022-12-24T10:45:42.434Z,5.10
2022-12-24T10:46:42.563Z,2.20
2022-12-24T10:47:42.304Z,1.80
2022-12-24T10:48:48.292Z,4.70
2022-12-24T10:49:43.368Z,9.70
2022-12-24T10:50:42.305Z,3.60
2022-12-24T10:51:42.315Z,4.40
2022-12-24T10:52:42.290Z,5.50
2022-12-24T10:53:42.388Z,2.80
2022-12-24T10:54:42.314Z,1.10
2022-12-24T10:55:42.285Z,6.70
2022-12-24T10:56:42.285Z,5.90
2022-12-24T10:57:42.338Z,1.90
2022-12-24T10:58:42.244Z,8.40
2022-12-24T10:59:42.318Z,2.60
2022-12-24T11:00:42.256Z,7.10
2022-12-24T11:01:42.384Z,5.10
2022-12-24T11:02:42.409Z,1.40
2022-12-24T11:03:42.285Z,4.40
2022-12-24T11:04:42.208Z,3.60
2022-12-24T11:05:42.318Z,2.30
2022-12-24T11:06:47.585Z,2.80
2022-12-24T11:07:43.214Z,4.30
2022-12-24T11:08:42.203Z,2.10
2022-12-24T11:09:42.201Z,3.60
2022-12-24T11:10:42.187Z,1.70
2022-12-24T11:11:42.312Z,3.10
2022-12-24T11:12:42.235Z,4.20
2022-12-24T11:13:42.180Z,5.60
2022-12-24T11:14:42.173Z,2.40
2022-12-24T11:15:42.295Z,3.10
2022-12-24T11:16:42.221Z,4.30
2022-12-24T11:17:42.172Z,3.60
2022-12-24T11:18:46.759Z,2.70
2022-12-24T11:19:44.158Z,3.00
2022-12-24T11:20:42.104Z,3.00
2022-12-24T11:21:42.137Z,4.10
2022-12-24T11:22:42.314Z,12.20
2022-12-24T11:23:42.182Z,3.80
2022-12-24T11:24:46.512Z,5.70
2022-12-24T11:25:42.090Z,2.90
2022-12-24T11:26:42.100Z,2.00
2022-12-24T11:27:42.169Z,11.30
2022-12-24T11:28:42.076Z,4.20
2022-12-24T11:29:42.093Z,2.00
2022-12-24T11:30:42.125Z,9.30
2022-12-24T11:31:42.084Z,5.90
2022-12-24T11:32:42.067Z,3.30
2022-12-24T11:33:42.157Z,5.30
2022-12-24T11:34:42.043Z,2.20
2022-12-24T11:35:42.043Z,4.40
2022-12-24T11:36:42.028Z,4.20
2022-12-24T11:37:42.048Z,2.90
2022-12-24T11:38:42.040Z,6.40
2022-12-24T11:39:42.019Z,3.00
2022-12-24T11:40:42.028Z,8.10
2022-12-24T11:41:42.005Z,2.20
2022-12-24T11:42:41.987Z,1.80
2022-12-24T11:43:41.979Z,5.00
2022-12-24T11:44:42.034Z,5.70
2022-12-24T11:45:42.076Z,4.30
2022-12-24T11:46:42.044Z,8.40
2022-12-24T11:47:41.965Z,3.10
2022-12-24T11:48:41.970Z,3.70
2022-12-24T11:49:41.951Z,3.60
2022-12-24T11:50:41.945Z,2.50
2022-12-24T11:51:41.969Z,4.30
2022-12-24T11:52:42.951Z,7.20
2022-12-24T11:53:42.897Z,7.80
2022-12-24T11:54:41.982Z,6.70
2022-12-24T11:55:42.026Z,6.20
2022-12-24T11:56:41.903Z,5.20
2022-12-24T11:57:41.891Z,2.40
2022-12-24T11:58:41.888Z,5.70
2022-12-24T11:59:41.907Z,3.30
2022-12-24T12:00:41.960Z,2.90
2022-12-24T12:01:41.905Z,3.60
2022-12-24T12:02:41.946Z,5.50
2022-12-24T12:03:41.899Z,7.40
2022-12-24T12:04:41.870Z,4.50
2022-12-24T12:05:41.844Z,2.10
2022-12-24T12:06:41.956Z,4.80
2022-12-24T12:07:42.835Z,4.00
2022-12-24T12:08:41.860Z,2.50
2022-12-24T12:09:41.846Z,3.80
2022-12-24T12:10:41.837Z,7.20
2022-12-24T12:11:41.922Z,4.30
2022-12-24T12:12:41.862Z,7.30
2022-12-24T12:13:41.833Z,4.20
2022-12-24T12:14:41.817Z,3.90
2022-12-24T12:15:41.866Z,2.30
2022-12-24T12:16:41.816Z,7.00
2022-12-24T12:17:41.960Z,5.90
2022-12-24T12:18:41.757Z,6.60
2022-12-24T12:19:41.816Z,4.50
2022-12-24T12:20:41.795Z,6.70
2022-12-24T12:21:41.786Z,7.00
2022-12-24T12:22:41.884Z,2.70
2022-12-24T12:23:41.748Z,6.90
2022-12-24T12:24:41.737Z,4.30
2022-12-24T12:25:41.762Z,10.30
2022-12-24T12:26:42.577Z,9.30
2022-12-24T12:27:41.695Z,8.50
2022-12-24T12:28:41.746Z,4.80
2022-12-24T12:29:41.737Z,9.70
2022-12-24T12:30:41.700Z,8.40
2022-12-24T12:31:41.761Z,3.00
2022-12-24T12:32:41.768Z,5.60
2022-12-24T12:33:41.730Z,3.10
2022-12-24T12:34:41.679Z,5.30
2022-12-24T12:35:41.714Z,3.50
2022-12-24T12:36:41.680Z,5.00
2022-12-24T12:37:41.625Z,7.90
2022-12-24T12:38:41.650Z,9.70
2022-12-24T12:39:41.688Z,2.70
2022-12-24T12:40:41.654Z,3.70
2022-12-24T12:41:41.670Z,4.90
2022-12-24T12:42:41.685Z,4.00
2022-12-24T12:43:41.640Z,6.00
2022-12-24T12:44:42.090Z,4.10
2022-12-24T12:45:41.643Z,4.90
2022-12-24T12:46:41.735Z,8.10
2022-12-24T12:47:41.605Z,3.70
2022-12-24T12:48:41.585Z,4.70
2022-12-24T12:49:41.590Z,5.10
2022-12-24T12:50:41.628Z,8.70
2022-12-24T12:51:41.602Z,3.10
2022-12-24T12:52:41.612Z,9.30
2022-12-24T12:53:41.576Z,2.10
2022-12-24T12:54:41.581Z,2.50
2022-12-24T12:55:41.592Z,4.60
2022-12-24T12:56:41.527Z,6.70
2022-12-24T12:57:41.552Z,2.10
2022-12-24T12:58:41.560Z,3.60
2022-12-24T12:59:41.541Z,1.70
2022-12-24T13:00:41.595Z,3.40
2022-12-24T13:01:41.716Z,5.70
2022-12-24T13:02:41.687Z,8.00
2022-12-24T13:03:41.520Z,68.80
2022-12-24T13:04:41.528Z,38.10
2022-12-24T13:05:41.518Z,17.30
2022-12-24T13:06:41.515Z,27.00
2022-12-24T13:07:41.509Z,29.10
2022-12-24T13:08:41.509Z,70.50
2022-12-24T13:09:41.495Z,76.00
2022-12-24T13:10:41.460Z,72.90
2022-12-24T13:11:41.493Z,37.80
2022-12-24T13:12:41.518Z,29.10
2022-12-24T13:13:41.422Z,15.60
2022-12-24T13:14:41.487Z,13.10
2022-12-24T13:15:41.551Z,13.90
2022-12-24T13:16:41.480Z,25.80